sensor_id;sensor_type;location;lat;lon;timestamp;temperature;humidity
65472;DHT22;52068;50.710;14.492;2023-06-14T00:01:14;24.19;45.17
65472;DHT22;52068;50.710;14.492;2023-06-14T00:03:40;24.13;45.42
65472;DHT22;52068;50.710;14.492;2023-06-14T00:06:06;24.09;45.46
65472;DHT22;52068;50.710;14.492;2023-06-14T00:08:31;24.06;45.48
65472;DHT22;52068;50.710;14.492;2023-06-14T00:10:57;24.05;45.39
65472;DHT22;52068;50.710;14.492;2023-06-14T00:13:22;24.01;45.53
65472;DHT22;52068;50.710;14.492;2023-06-14T00:15:48;24.01;45.70
65472;DHT22;52068;50.710;14.492;2023-06-14T00:18:13;23.95;45.75
65472;DHT22;52068;50.710;14.492;2023-06-14T00:20:40;23.90;45.88
65472;DHT22;52068;50.710;14.492;2023-06-14T00:23:06;23.89;45.93
65472;DHT22;52068;50.710;14.492;2023-06-14T00:25:32;23.86;46.04
65472;DHT22;52068;50.710;14.492;2023-06-14T00:27:57;23.84;46.08
65472;DHT22;52068;50.710;14.492;2023-06-14T00:30:23;23.79;46.19
65472;DHT22;52068;50.710;14.492;2023-06-14T00:32:49;23.79;46.51
65472;DHT22;52068;50.710;14.492;2023-06-14T00:35:15;23.75;46.44
65472;DHT22;52068;50.710;14.492;2023-06-14T00:37:40;23.74;46.58
65472;DHT22;52068;50.710;14.492;2023-06-14T00:40:06;23.71;46.74
65472;DHT22;52068;50.710;14.492;2023-06-14T00:42:32;23.71;47.08
65472;DHT22;52068;50.710;14.492;2023-06-14T00:44:59;23.66;46.96
65472;DHT22;52068;50.710;14.492;2023-06-14T00:47:24;23.66;46.70
65472;DHT22;52068;50.710;14.492;2023-06-14T00:49:50;23.65;46.88
65472;DHT22;52068;50.710;14.492;2023-06-14T00:52:17;23.62;46.81
65472;DHT22;52068;50.710;14.492;2023-06-14T00:54:43;23.58;46.88
65472;DHT22;52068;50.710;14.492;2023-06-14T00:57:10;23.59;46.93
65472;DHT22;52068;50.710;14.492;2023-06-14T00:59:47;23.57;46.98
65472;DHT22;52068;50.710;14.492;2023-06-14T01:02:13;23.52;47.10
65472;DHT22;52068;50.710;14.492;2023-06-14T01:04:40;23.52;47.22
65472;DHT22;52068;50.710;14.492;2023-06-14T01:12:42;23.50;47.36
65472;DHT22;52068;50.710;14.492;2023-06-14T01:15:10;23.45;47.27
65472;DHT22;52068;50.710;14.492;2023-06-14T01:17:37;23.44;47.21
65472;DHT22;52068;50.710;14.492;2023-06-14T01:20:10;23.43;47.14
65472;DHT22;52068;50.710;14.492;2023-06-14T01:22:48;23.40;47.35
65472;DHT22;52068;50.710;14.492;2023-06-14T01:25:13;23.37;47.28
65472;DHT22;52068;50.710;14.492;2023-06-14T01:27:39;23.40;47.38
65472;DHT22;52068;50.710;14.492;2023-06-14T01:30:05;23.35;47.28
65472;DHT22;52068;50.710;14.492;2023-06-14T01:32:31;23.34;47.06
65472;DHT22;52068;50.710;14.492;2023-06-14T01:34:56;23.34;47.03
65472;DHT22;52068;50.710;14.492;2023-06-14T01:37:22;23.31;47.14
65472;DHT22;52068;50.710;14.492;2023-06-14T01:39:48;23.30;46.95
65472;DHT22;52068;50.710;14.492;2023-06-14T01:42:15;23.30;47.34
65472;DHT22;52068;50.710;14.492;2023-06-14T01:44:42;23.31;47.45
65472;DHT22;52068;50.710;14.492;2023-06-14T01:47:08;23.30;47.26
65472;DHT22;52068;50.710;14.492;2023-06-14T01:49:34;23.27;47.29
65472;DHT22;52068;50.710;14.492;2023-06-14T01:52:00;23.27;47.19
65472;DHT22;52068;50.710;14.492;2023-06-14T01:54:26;23.23;47.26
65472;DHT22;52068;50.710;14.492;2023-06-14T01:56:51;23.23;47.22
65472;DHT22;52068;50.710;14.492;2023-06-14T01:59:17;23.21;47.54
65472;DHT22;52068;50.710;14.492;2023-06-14T02:01:42;23.23;47.40
65472;DHT22;52068;50.710;14.492;2023-06-14T02:04:07;23.21;47.57
65472;DHT22;52068;50.710;14.492;2023-06-14T02:06:33;23.18;47.56
65472;DHT22;52068;50.710;14.492;2023-06-14T02:09:01;23.17;47.48
65472;DHT22;52068;50.710;14.492;2023-06-14T02:11:26;23.18;47.43
65472;DHT22;52068;50.710;14.492;2023-06-14T02:13:52;23.18;47.54
65472;DHT22;52068;50.710;14.492;2023-06-14T02:16:17;23.15;47.64
65472;DHT22;52068;50.710;14.492;2023-06-14T02:18:43;23.15;47.86
65472;DHT22;52068;50.710;14.492;2023-06-14T02:21:08;23.14;47.69
65472;DHT22;52068;50.710;14.492;2023-06-14T02:23:34;23.14;47.54
65472;DHT22;52068;50.710;14.492;2023-06-14T02:25:59;23.14;47.61
65472;DHT22;52068;50.710;14.492;2023-06-14T02:28:25;23.14;47.52
65472;DHT22;52068;50.710;14.492;2023-06-14T02:30:50;23.13;47.80
65472;DHT22;52068;50.710;14.492;2023-06-14T02:33:16;23.14;47.72
65472;DHT22;52068;50.710;14.492;2023-06-14T02:35:42;23.11;47.71
65472;DHT22;52068;50.710;14.492;2023-06-14T02:38:08;23.11;47.59
65472;DHT22;52068;50.710;14.492;2023-06-14T02:40:33;23.13;47.47
65472;DHT22;52068;50.710;14.492;2023-06-14T02:42:59;23.08;47.66
65472;DHT22;52068;50.710;14.492;2023-06-14T02:45:25;23.10;47.68
65472;DHT22;52068;50.710;14.492;2023-06-14T02:47:50;23.10;47.64
65472;DHT22;52068;50.710;14.492;2023-06-14T02:50:16;23.10;47.62
65472;DHT22;52068;50.710;14.492;2023-06-14T02:52:42;23.07;47.54
65472;DHT22;52068;50.710;14.492;2023-06-14T02:55:09;23.07;47.68
65472;DHT22;52068;50.710;14.492;2023-06-14T02:57:35;23.08;48.21
65472;DHT22;52068;50.710;14.492;2023-06-14T03:00:00;23.06;48.03
65472;DHT22;52068;50.710;14.492;2023-06-14T03:02:26;23.06;48.17
65472;DHT22;52068;50.710;14.492;2023-06-14T03:04:51;23.04;48.23
65472;DHT22;52068;50.710;14.492;2023-06-14T03:07:16;23.04;48.12
65472;DHT22;52068;50.710;14.492;2023-06-14T03:09:45;23.03;48.10
65472;DHT22;52068;50.710;14.492;2023-06-14T03:12:10;23.03;48.08
65472;DHT22;52068;50.710;14.492;2023-06-14T03:14:36;23.00;48.24
65472;DHT22;52068;50.710;14.492;2023-06-14T03:17:05;22.97;48.12
65472;DHT22;52068;50.710;14.492;2023-06-14T03:19:30;23.00;48.09
65472;DHT22;52068;50.710;14.492;2023-06-14T03:21:56;23.02;48.09
65472;DHT22;52068;50.710;14.492;2023-06-14T03:24:24;23.00;47.92
65472;DHT22;52068;50.710;14.492;2023-06-14T03:26:52;23.00;47.90
65472;DHT22;52068;50.710;14.492;2023-06-14T03:29:18;22.97;48.00
65472;DHT22;52068;50.710;14.492;2023-06-14T03:31:59;23.00;48.01
65472;DHT22;52068;50.710;14.492;2023-06-14T03:34:25;23.00;48.11
65472;DHT22;52068;50.710;14.492;2023-06-14T03:36:51;22.99;48.03
65472;DHT22;52068;50.710;14.492;2023-06-14T03:39:16;23.00;48.16
65472;DHT22;52068;50.710;14.492;2023-06-14T03:41:41;23.03;48.11
65472;DHT22;52068;50.710;14.492;2023-06-14T03:44:07;23.02;47.98
65472;DHT22;52068;50.710;14.492;2023-06-14T03:46:32;22.93;44.68
65472;DHT22;52068;50.710;14.492;2023-06-14T03:48:58;22.87;47.12
65472;DHT22;52068;50.710;14.492;2023-06-14T03:51:23;22.89;47.63
65472;DHT22;52068;50.710;14.492;2023-06-14T03:53:50;22.86;47.47
65472;DHT22;52068;50.710;14.492;2023-06-14T03:56:15;22.86;47.84
65472;DHT22;52068;50.710;14.492;2023-06-14T03:58:41;22.87;47.60
65472;DHT22;52068;50.710;14.492;2023-06-14T04:01:06;22.87;47.57
65472;DHT22;52068;50.710;14.492;2023-06-14T04:03:32;22.90;47.65
65472;DHT22;52068;50.710;14.492;2023-06-14T04:05:58;22.94;47.44
65472;DHT22;52068;50.710;14.492;2023-06-14T04:08:25;22.94;47.53
65472;DHT22;52068;50.710;14.492;2023-06-14T04:10:50;22.93;47.70
65472;DHT22;52068;50.710;14.492;2023-06-14T04:13:16;22.96;47.94
65472;DHT22;52068;50.710;14.492;2023-06-14T04:15:42;22.99;48.04
65472;DHT22;52068;50.710;14.492;2023-06-14T04:18:09;23.02;48.07
65472;DHT22;52068;50.710;14.492;2023-06-14T04:20:34;23.03;47.97
65472;DHT22;52068;50.710;14.492;2023-06-14T04:23:14;23.04;48.12
65472;DHT22;52068;50.710;14.492;2023-06-14T04:25:40;23.04;48.23
65472;DHT22;52068;50.710;14.492;2023-06-14T04:28:05;23.06;48.42
65472;DHT22;52068;50.710;14.492;2023-06-14T04:30:34;23.07;48.89
65472;DHT22;52068;50.710;14.492;2023-06-14T04:33:00;23.06;48.24
65472;DHT22;52068;50.710;14.492;2023-06-14T04:35:26;23.06;47.47
65472;DHT22;52068;50.710;14.492;2023-06-14T04:37:52;23.07;47.02
65472;DHT22;52068;50.710;14.492;2023-06-14T04:40:18;23.06;46.74
65472;DHT22;52068;50.710;14.492;2023-06-14T04:42:44;23.07;46.52
65472;DHT22;52068;50.710;14.492;2023-06-14T04:45:10;23.07;46.23
65472;DHT22;52068;50.710;14.492;2023-06-14T04:47:36;23.10;46.03
65472;DHT22;52068;50.710;14.492;2023-06-14T04:50:02;23.08;46.81
65472;DHT22;52068;50.710;14.492;2023-06-14T04:52:28;23.10;47.20
65472;DHT22;52068;50.710;14.492;2023-06-14T04:54:55;23.07;47.24
65472;DHT22;52068;50.710;14.492;2023-06-14T04:57:21;23.13;47.28
65472;DHT22;52068;50.710;14.492;2023-06-14T04:59:47;23.11;47.31
65472;DHT22;52068;50.710;14.492;2023-06-14T05:02:13;23.13;47.28
65472;DHT22;52068;50.710;14.492;2023-06-14T05:04:39;23.14;47.33
65472;DHT22;52068;50.710;14.492;2023-06-14T05:07:08;23.14;47.21
65472;DHT22;52068;50.710;14.492;2023-06-14T05:09:34;23.15;46.53
65472;DHT22;52068;50.710;14.492;2023-06-14T05:11:59;23.15;46.01
65472;DHT22;52068;50.710;14.492;2023-06-14T05:14:26;23.20;45.77
65472;DHT22;52068;50.710;14.492;2023-06-14T05:16:51;23.20;45.61
65472;DHT22;52068;50.710;14.492;2023-06-14T05:19:17;23.20;45.43
65472;DHT22;52068;50.710;14.492;2023-06-14T05:21:43;23.18;45.37
65472;DHT22;52068;50.710;14.492;2023-06-14T05:24:09;23.18;45.70
65472;DHT22;52068;50.710;14.492;2023-06-14T05:26:34;23.20;45.79
65472;DHT22;52068;50.710;14.492;2023-06-14T05:29:00;23.18;45.62
65472;DHT22;52068;50.710;14.492;2023-06-14T05:31:27;23.23;45.87
65472;DHT22;52068;50.710;14.492;2023-06-14T05:33:53;23.23;45.83
65472;DHT22;52068;50.710;14.492;2023-06-14T05:36:21;23.23;45.76
65472;DHT22;52068;50.710;14.492;2023-06-14T05:38:47;23.24;45.84
65472;DHT22;52068;50.710;14.492;2023-06-14T05:41:13;23.25;45.55
65472;DHT22;52068;50.710;14.492;2023-06-14T05:43:38;23.31;45.72
65472;DHT22;52068;50.710;14.492;2023-06-14T05:46:04;23.30;45.76
65472;DHT22;52068;50.710;14.492;2023-06-14T05:48:30;23.27;45.75
65472;DHT22;52068;50.710;14.492;2023-06-14T05:50:56;23.31;45.84
65472;DHT22;52068;50.710;14.492;2023-06-14T05:53:21;23.31;46.10
65472;DHT22;52068;50.710;14.492;2023-06-14T05:55:46;23.34;45.90
65472;DHT22;52068;50.710;14.492;2023-06-14T05:58:12;23.40;45.93
65472;DHT22;52068;50.710;14.492;2023-06-14T06:00:39;23.43;45.77
65472;DHT22;52068;50.710;14.492;2023-06-14T06:03:04;23.47;45.74
65472;DHT22;52068;50.710;14.492;2023-06-14T06:05:30;23.40;45.78
65472;DHT22;52068;50.710;14.492;2023-06-14T06:07:55;23.43;45.68
65472;DHT22;52068;50.710;14.492;2023-06-14T06:10:21;23.45;45.85
65472;DHT22;52068;50.710;14.492;2023-06-14T06:12:46;23.43;45.88
65472;DHT22;52068;50.710;14.492;2023-06-14T06:15:13;23.45;45.81
65472;DHT22;52068;50.710;14.492;2023-06-14T06:17:40;23.44;45.82
65472;DHT22;52068;50.710;14.492;2023-06-14T06:20:06;23.43;45.83
65472;DHT22;52068;50.710;14.492;2023-06-14T06:22:34;23.47;45.91
65472;DHT22;52068;50.710;14.492;2023-06-14T06:24:59;23.45;45.86
65472;DHT22;52068;50.710;14.492;2023-06-14T06:27:24;23.45;45.81
65472;DHT22;52068;50.710;14.492;2023-06-14T06:29:50;23.44;45.91
65472;DHT22;52068;50.710;14.492;2023-06-14T06:32:17;23.48;45.90
65472;DHT22;52068;50.710;14.492;2023-06-14T06:34:42;23.51;45.87
65472;DHT22;52068;50.710;14.492;2023-06-14T06:37:08;23.48;45.83
65472;DHT22;52068;50.710;14.492;2023-06-14T06:39:33;23.44;45.86
65472;DHT22;52068;50.710;14.492;2023-06-14T06:41:58;23.45;46.01
65472;DHT22;52068;50.710;14.492;2023-06-14T06:44:24;23.50;45.97
65472;DHT22;52068;50.710;14.492;2023-06-14T06:46:49;23.50;46.01
65472;DHT22;52068;50.710;14.492;2023-06-14T06:49:14;23.52;45.90
65472;DHT22;52068;50.710;14.492;2023-06-14T06:51:43;23.50;45.84
65472;DHT22;52068;50.710;14.492;2023-06-14T06:54:10;23.52;46.04
65472;DHT22;52068;50.710;14.492;2023-06-14T06:56:36;23.52;46.04
65472;DHT22;52068;50.710;14.492;2023-06-14T06:59:01;23.55;46.06
65472;DHT22;52068;50.710;14.492;2023-06-14T07:01:27;23.58;46.02
65472;DHT22;52068;50.710;14.492;2023-06-14T07:03:54;23.58;46.01
65472;DHT22;52068;50.710;14.492;2023-06-14T07:06:20;23.61;45.86
65472;DHT22;52068;50.710;14.492;2023-06-14T07:08:45;23.64;45.82
65472;DHT22;52068;50.710;14.492;2023-06-14T07:11:13;23.65;45.82
65472;DHT22;52068;50.710;14.492;2023-06-14T07:13:39;23.69;45.64
65472;DHT22;52068;50.710;14.492;2023-06-14T07:16:04;23.71;45.69
65472;DHT22;52068;50.710;14.492;2023-06-14T07:18:30;23.75;45.71
65472;DHT22;52068;50.710;14.492;2023-06-14T07:20:56;23.76;45.62
65472;DHT22;52068;50.710;14.492;2023-06-14T07:23:22;23.76;45.65
65472;DHT22;52068;50.710;14.492;2023-06-14T07:25:48;23.79;45.60
65472;DHT22;52068;50.710;14.492;2023-06-14T07:28:13;23.79;45.56
65472;DHT22;52068;50.710;14.492;2023-06-14T07:30:39;23.81;45.60
65472;DHT22;52068;50.710;14.492;2023-06-14T07:33:05;23.82;45.54
65472;DHT22;52068;50.710;14.492;2023-06-14T07:35:31;23.86;45.45
65472;DHT22;52068;50.710;14.492;2023-06-14T07:37:56;23.84;45.46
65472;DHT22;52068;50.710;14.492;2023-06-14T07:40:21;23.86;45.46
65472;DHT22;52068;50.710;14.492;2023-06-14T07:42:47;23.89;45.42
65472;DHT22;52068;50.710;14.492;2023-06-14T07:45:13;23.86;45.42
65472;DHT22;52068;50.710;14.492;2023-06-14T07:47:39;23.88;45.40
65472;DHT22;52068;50.710;14.492;2023-06-14T07:50:05;23.90;45.39
65472;DHT22;52068;50.710;14.492;2023-06-14T07:52:30;23.93;45.34
65472;DHT22;52068;50.710;14.492;2023-06-14T07:54:56;23.95;45.34
65472;DHT22;52068;50.710;14.492;2023-06-14T07:57:22;23.95;45.34
65472;DHT22;52068;50.710;14.492;2023-06-14T07:59:47;23.96;45.31
65472;DHT22;52068;50.710;14.492;2023-06-14T08:02:12;23.96;45.25
65472;DHT22;52068;50.710;14.492;2023-06-14T08:04:38;23.95;45.29
65472;DHT22;52068;50.710;14.492;2023-06-14T08:07:03;23.95;45.18
65472;DHT22;52068;50.710;14.492;2023-06-14T08:09:29;23.99;45.24
65472;DHT22;52068;50.710;14.492;2023-06-14T08:11:55;24.01;45.18
65472;DHT22;52068;50.710;14.492;2023-06-14T08:14:20;24.02;45.22
65472;DHT22;52068;50.710;14.492;2023-06-14T08:16:46;24.03;45.14
65472;DHT22;52068;50.710;14.492;2023-06-14T08:19:11;24.01;45.15
65472;DHT22;52068;50.710;14.492;2023-06-14T08:21:37;24.05;45.09
65472;DHT22;52068;50.710;14.492;2023-06-14T08:24:02;24.06;45.13
65472;DHT22;52068;50.710;14.492;2023-06-14T08:26:28;24.03;45.14
65472;DHT22;52068;50.710;14.492;2023-06-14T08:28:55;24.05;45.10
65472;DHT22;52068;50.710;14.492;2023-06-14T08:31:21;24.08;45.09
65472;DHT22;52068;50.710;14.492;2023-06-14T08:33:46;24.06;45.06
65472;DHT22;52068;50.710;14.492;2023-06-14T08:36:12;24.06;45.06
65472;DHT22;52068;50.710;14.492;2023-06-14T08:38:38;24.09;45.03
65472;DHT22;52068;50.710;14.492;2023-06-14T08:41:04;24.09;44.97
65472;DHT22;52068;50.710;14.492;2023-06-14T08:43:31;24.09;45.01
65472;DHT22;52068;50.710;14.492;2023-06-14T08:46:01;24.09;44.96
65472;DHT22;52068;50.710;14.492;2023-06-14T08:48:28;24.10;44.99
65472;DHT22;52068;50.710;14.492;2023-06-14T08:50:59;24.09;44.98
65472;DHT22;52068;50.710;14.492;2023-06-14T08:53:36;24.15;44.96
65472;DHT22;52068;50.710;14.492;2023-06-14T08:56:08;24.13;44.93
65472;DHT22;52068;50.710;14.492;2023-06-14T08:58:44;24.15;44.94
65472;DHT22;52068;50.710;14.492;2023-06-14T09:01:11;24.15;44.94
65472;DHT22;52068;50.710;14.492;2023-06-14T09:03:40;24.13;44.88
65472;DHT22;52068;50.710;14.492;2023-06-14T09:06:06;24.15;44.89
65472;DHT22;52068;50.710;14.492;2023-06-14T09:08:34;24.13;44.90
65472;DHT22;52068;50.710;14.492;2023-06-14T09:11:01;24.17;44.88
65472;DHT22;52068;50.710;14.492;2023-06-14T09:13:27;24.17;44.85
65472;DHT22;52068;50.710;14.492;2023-06-14T09:15:53;24.19;44.85
65472;DHT22;52068;50.710;14.492;2023-06-14T09:18:18;24.19;44.87
65472;DHT22;52068;50.710;14.492;2023-06-14T09:20:45;24.20;44.82
65472;DHT22;52068;50.710;14.492;2023-06-14T09:23:12;24.20;44.83
65472;DHT22;52068;50.710;14.492;2023-06-14T09:25:42;24.23;44.72
65472;DHT22;52068;50.710;14.492;2023-06-14T09:28:09;24.24;44.70
65472;DHT22;52068;50.710;14.492;2023-06-14T09:30:38;24.23;44.67
65472;DHT22;52068;50.710;14.492;2023-06-14T09:33:04;24.27;44.68
65472;DHT22;52068;50.710;14.492;2023-06-14T09:35:31;24.26;44.67
65472;DHT22;52068;50.710;14.492;2023-06-14T09:37:57;24.26;44.67
65472;DHT22;52068;50.710;14.492;2023-06-14T09:40:23;24.26;44.68
65472;DHT22;52068;50.710;14.492;2023-06-14T09:42:49;24.29;44.72
65472;DHT22;52068;50.710;14.492;2023-06-14T09:45:15;24.30;44.64
65472;DHT22;52068;50.710;14.492;2023-06-14T09:47:48;24.33;44.64
65472;DHT22;52068;50.710;14.492;2023-06-14T09:50:14;24.32;44.63
65472;DHT22;52068;50.710;14.492;2023-06-14T09:52:39;24.33;44.57
65472;DHT22;52068;50.710;14.492;2023-06-14T09:55:12;24.32;44.59
65472;DHT22;52068;50.710;14.492;2023-06-14T09:57:41;24.33;44.54
65472;DHT22;52068;50.710;14.492;2023-06-14T10:00:08;24.34;44.58
65472;DHT22;52068;50.710;14.492;2023-06-14T10:02:38;24.34;44.55
65472;DHT22;52068;50.710;14.492;2023-06-14T10:05:05;24.36;44.55
65472;DHT22;52068;50.710;14.492;2023-06-14T10:07:52;24.36;44.56
65472;DHT22;52068;50.710;14.492;2023-06-14T10:10:18;24.36;44.53
65472;DHT22;52068;50.710;14.492;2023-06-14T10:12:44;24.34;44.53
65472;DHT22;52068;50.710;14.492;2023-06-14T10:15:18;24.37;44.52
65472;DHT22;52068;50.710;14.492;2023-06-14T10:17:52;24.37;44.55
65472;DHT22;52068;50.710;14.492;2023-06-14T10:23:16;24.37;44.47
65472;DHT22;52068;50.710;14.492;2023-06-14T10:25:42;24.37;44.38
65472;DHT22;52068;50.710;14.492;2023-06-14T10:28:14;24.39;44.48
65472;DHT22;52068;50.710;14.492;2023-06-14T10:31:02;24.39;44.51
65472;DHT22;52068;50.710;14.492;2023-06-14T10:33:34;24.40;44.42
65472;DHT22;52068;50.710;14.492;2023-06-14T10:39:17;24.40;44.42
65472;DHT22;52068;50.710;14.492;2023-06-14T10:41:52;24.41;44.45
65472;DHT22;52068;50.710;14.492;2023-06-14T10:46:46;24.43;44.39
65472;DHT22;52068;50.710;14.492;2023-06-14T10:49:12;24.44;44.34
65472;DHT22;52068;50.710;14.492;2023-06-14T10:51:42;24.44;44.29
65472;DHT22;52068;50.710;14.492;2023-06-14T10:54:14;24.49;44.34
65472;DHT22;52068;50.710;14.492;2023-06-14T10:56:52;24.47;44.28
65472;DHT22;52068;50.710;14.492;2023-06-14T10:59:19;24.49;44.24
65472;DHT22;52068;50.710;14.492;2023-06-14T11:04:51;24.49;44.20
65472;DHT22;52068;50.710;14.492;2023-06-14T11:12:41;24.52;44.22
65472;DHT22;52068;50.710;14.492;2023-06-14T11:15:08;24.50;44.16
65472;DHT22;52068;50.710;14.492;2023-06-14T11:17:33;24.53;44.13
65472;DHT22;52068;50.710;14.492;2023-06-14T11:20:09;24.54;44.10
65472;DHT22;52068;50.710;14.492;2023-06-14T11:22:41;24.53;44.01
65472;DHT22;52068;50.710;14.492;2023-06-14T11:25:09;24.57;44.05
65472;DHT22;52068;50.710;14.492;2023-06-14T11:27:35;24.57;44.05
65472;DHT22;52068;50.710;14.492;2023-06-14T11:30:00;24.57;43.98
65472;DHT22;52068;50.710;14.492;2023-06-14T11:32:25;24.56;43.76
65472;DHT22;52068;50.710;14.492;2023-06-14T11:34:51;24.56;43.87
65472;DHT22;52068;50.710;14.492;2023-06-14T11:37:17;24.57;43.95
65472;DHT22;52068;50.710;14.492;2023-06-14T11:39:45;24.56;44.00
65472;DHT22;52068;50.710;14.492;2023-06-14T11:42:17;24.56;43.78
65472;DHT22;52068;50.710;14.492;2023-06-14T11:44:46;24.57;43.96
65472;DHT22;52068;50.710;14.492;2023-06-14T11:47:11;24.57;44.02
65472;DHT22;52068;50.710;14.492;2023-06-14T11:49:36;24.57;44.03
65472;DHT22;52068;50.710;14.492;2023-06-14T11:52:02;24.57;44.08
65472;DHT22;52068;50.710;14.492;2023-06-14T11:54:28;24.54;44.12
65472;DHT22;52068;50.710;14.492;2023-06-14T11:56:53;24.56;44.07
65472;DHT22;52068;50.710;14.492;2023-06-14T11:59:20;24.56;44.03
65472;DHT22;52068;50.710;14.492;2023-06-14T12:01:45;24.56;44.04
65472;DHT22;52068;50.710;14.492;2023-06-14T12:04:12;24.59;44.03
65472;DHT22;52068;50.710;14.492;2023-06-14T12:06:37;24.59;44.04
65472;DHT22;52068;50.710;14.492;2023-06-14T12:09:05;24.59;44.01
65472;DHT22;52068;50.710;14.492;2023-06-14T12:11:38;24.61;43.99
65472;DHT22;52068;50.710;14.492;2023-06-14T12:14:04;24.59;44.02
65472;DHT22;52068;50.710;14.492;2023-06-14T12:16:34;24.59;43.99
65472;DHT22;52068;50.710;14.492;2023-06-14T12:19:09;24.57;44.07
65472;DHT22;52068;50.710;14.492;2023-06-14T12:21:37;24.54;44.08
65472;DHT22;52068;50.710;14.492;2023-06-14T12:24:04;24.56;44.13
65472;DHT22;52068;50.710;14.492;2023-06-14T12:26:29;24.53;44.12
65472;DHT22;52068;50.710;14.492;2023-06-14T12:28:56;24.53;44.10
65472;DHT22;52068;50.710;14.492;2023-06-14T12:31:21;24.53;44.13
65472;DHT22;52068;50.710;14.492;2023-06-14T12:33:47;24.53;44.13
65472;DHT22;52068;50.710;14.492;2023-06-14T12:36:14;24.53;44.16
65472;DHT22;52068;50.710;14.492;2023-06-14T12:38:40;24.52;44.17
65472;DHT22;52068;50.710;14.492;2023-06-14T12:41:05;24.50;44.11
65472;DHT22;52068;50.710;14.492;2023-06-14T12:43:31;24.50;44.11
65472;DHT22;52068;50.710;14.492;2023-06-14T12:45:56;24.49;44.10
65472;DHT22;52068;50.710;14.492;2023-06-14T12:48:22;24.49;44.16
65472;DHT22;52068;50.710;14.492;2023-06-14T12:50:47;24.52;44.14
65472;DHT22;52068;50.710;14.492;2023-06-14T12:53:13;24.47;44.12
65472;DHT22;52068;50.710;14.492;2023-06-14T12:55:38;24.49;44.13
65472;DHT22;52068;50.710;14.492;2023-06-14T12:58:04;24.46;44.13
65472;DHT22;52068;50.710;14.492;2023-06-14T13:00:29;24.47;44.12
65472;DHT22;52068;50.710;14.492;2023-06-14T13:02:56;24.47;44.11
65472;DHT22;52068;50.710;14.492;2023-06-14T13:05:22;24.46;44.20
65472;DHT22;52068;50.710;14.492;2023-06-14T13:07:47;24.46;44.14
65472;DHT22;52068;50.710;14.492;2023-06-14T13:10:12;24.47;44.13
65472;DHT22;52068;50.710;14.492;2023-06-14T13:12:38;24.50;44.07
65472;DHT22;52068;50.710;14.492;2023-06-14T13:15:04;24.52;44.10
65472;DHT22;52068;50.710;14.492;2023-06-14T13:17:31;24.53;44.07
65472;DHT22;52068;50.710;14.492;2023-06-14T13:19:58;24.57;43.95
65472;DHT22;52068;50.710;14.492;2023-06-14T13:22:24;24.80;43.51
65472;DHT22;52068;50.710;14.492;2023-06-14T13:24:50;24.92;43.19
65472;DHT22;52068;50.710;14.492;2023-06-14T13:27:15;24.91;43.20
65472;DHT22;52068;50.710;14.492;2023-06-14T13:29:41;24.84;43.39
65472;DHT22;52068;50.710;14.492;2023-06-14T13:32:06;24.78;43.52
65472;DHT22;52068;50.710;14.492;2023-06-14T13:34:32;24.85;43.37
65472;DHT22;52068;50.710;14.492;2023-06-14T13:36:57;24.94;43.19
65472;DHT22;52068;50.710;14.492;2023-06-14T13:39:25;24.84;43.38
65472;DHT22;52068;50.710;14.492;2023-06-14T13:41:50;24.80;43.47
65472;DHT22;52068;50.710;14.492;2023-06-14T13:44:15;24.78;43.48
65472;DHT22;52068;50.710;14.492;2023-06-14T13:46:44;24.75;43.51
65472;DHT22;52068;50.710;14.492;2023-06-14T13:49:10;24.96;43.14
65472;DHT22;52068;50.710;14.492;2023-06-14T13:51:35;25.10;42.83
65472;DHT22;52068;50.710;14.492;2023-06-14T13:54:01;25.07;42.84
65472;DHT22;52068;50.710;14.492;2023-06-14T13:56:26;25.04;43.03
65472;DHT22;52068;50.710;14.492;2023-06-14T13:58:52;24.94;43.20
65472;DHT22;52068;50.710;14.492;2023-06-14T14:01:18;24.92;43.29
65472;DHT22;52068;50.710;14.492;2023-06-14T14:03:48;24.85;43.39
65472;DHT22;52068;50.710;14.492;2023-06-14T14:06:15;24.83;43.53
65472;DHT22;52068;50.710;14.492;2023-06-14T14:08:40;24.83;43.63
65472;DHT22;52068;50.710;14.492;2023-06-14T14:11:06;24.78;43.63
65472;DHT22;52068;50.710;14.492;2023-06-14T14:13:32;24.94;43.35
65472;DHT22;52068;50.710;14.492;2023-06-14T14:15:58;25.11;43.15
65472;DHT22;52068;50.710;14.492;2023-06-14T14:18:24;25.22;42.87
65472;DHT22;52068;50.710;14.492;2023-06-14T14:20:49;25.29;42.67
65472;DHT22;52068;50.710;14.492;2023-06-14T14:23:15;25.21;42.70
65472;DHT22;52068;50.710;14.492;2023-06-14T14:25:40;25.15;42.84
65472;DHT22;52068;50.710;14.492;2023-06-14T14:28:06;25.07;42.94
65472;DHT22;52068;50.710;14.492;2023-06-14T14:30:31;25.03;43.08
65472;DHT22;52068;50.710;14.492;2023-06-14T14:32:57;24.98;43.10
65472;DHT22;52068;50.710;14.492;2023-06-14T14:35:23;24.92;43.15
65472;DHT22;52068;50.710;14.492;2023-06-14T14:37:51;24.90;43.22
65472;DHT22;52068;50.710;14.492;2023-06-14T14:40:16;24.88;43.20
65472;DHT22;52068;50.710;14.492;2023-06-14T14:42:42;24.87;43.21
65472;DHT22;52068;50.710;14.492;2023-06-14T14:45:07;24.87;43.18
65472;DHT22;52068;50.710;14.492;2023-06-14T14:47:33;24.85;43.19
65472;DHT22;52068;50.710;14.492;2023-06-14T14:49:58;24.87;43.09
65472;DHT22;52068;50.710;14.492;2023-06-14T14:52:23;24.87;43.14
65472;DHT22;52068;50.710;14.492;2023-06-14T14:54:50;24.87;43.21
65472;DHT22;52068;50.710;14.492;2023-06-14T14:57:15;24.87;43.34
65472;DHT22;52068;50.710;14.492;2023-06-14T14:59:41;24.84;43.46
65472;DHT22;52068;50.710;14.492;2023-06-14T15:02:06;24.85;43.68
65472;DHT22;52068;50.710;14.492;2023-06-14T15:04:31;24.90;43.56
65472;DHT22;52068;50.710;14.492;2023-06-14T15:06:57;24.92;43.58
65472;DHT22;52068;50.710;14.492;2023-06-14T15:09:23;24.96;43.43
65472;DHT22;52068;50.710;14.492;2023-06-14T15:11:48;24.98;43.37
65472;DHT22;52068;50.710;14.492;2023-06-14T15:14:13;24.95;43.39
65472;DHT22;52068;50.710;14.492;2023-06-14T15:16:40;25.03;43.33
65472;DHT22;52068;50.710;14.492;2023-06-14T15:19:05;25.07;43.15
65472;DHT22;52068;50.710;14.492;2023-06-14T15:21:31;25.07;43.08
65472;DHT22;52068;50.710;14.492;2023-06-14T15:23:56;25.08;42.97
65472;DHT22;52068;50.710;14.492;2023-06-14T15:26:21;25.12;42.88
65472;DHT22;52068;50.710;14.492;2023-06-14T15:28:49;25.11;42.88
65472;DHT22;52068;50.710;14.492;2023-06-14T15:31:14;25.14;42.90
65472;DHT22;52068;50.710;14.492;2023-06-14T15:33:40;25.14;42.92